createdAt,value
2017-08-04T00:00:09.424Z,3.10
2017-08-04T00:02:36.851Z,1.93
2017-08-04T00:05:05.067Z,1.60
2017-08-04T00:07:32.490Z,2.00
2017-08-04T00:09:59.911Z,1.60
2017-08-04T00:12:27.328Z,1.70
2017-08-04T00:14:54.774Z,2.00
2017-08-04T00:17:22.187Z,2.00
2017-08-04T00:19:50.383Z,2.20
2017-08-04T00:22:17.795Z,1.60
2017-08-04T00:24:45.238Z,1.97
2017-08-04T00:27:12.656Z,1.60
2017-08-04T00:29:40.083Z,1.90
2017-08-04T00:32:08.260Z,1.90
2017-08-04T00:34:35.680Z,2.40
2017-08-04T00:37:03.121Z,2.70
2017-08-04T00:39:30.524Z,1.60
2017-08-04T00:41:58.719Z,1.80
2017-08-04T00:44:26.135Z,2.10
2017-08-04T00:46:53.571Z,1.97
2017-08-04T00:49:20.995Z,1.87
2017-08-04T00:51:48.428Z,2.00
2017-08-04T00:54:16.599Z,2.10
2017-08-04T00:56:44.117Z,2.47
2017-08-04T00:59:11.570Z,2.00
2017-08-04T01:01:38.995Z,2.00
2017-08-04T01:04:06.409Z,2.00
2017-08-04T01:06:33.847Z,2.20
2017-08-04T01:09:01.272Z,3.00
2017-08-04T01:11:28.743Z,2.30
2017-08-04T01:13:56.160Z,1.90
2017-08-04T01:16:23.584Z,1.93
2017-08-04T01:18:51.011Z,2.00
2017-08-04T01:21:18.427Z,2.17
2017-08-04T01:23:45.855Z,2.10
2017-08-04T01:26:14.115Z,1.90
2017-08-04T01:28:41.642Z,2.17
2017-08-04T01:31:09.057Z,2.03
2017-08-04T01:33:36.489Z,1.93
2017-08-04T01:36:03.904Z,2.00
2017-08-04T01:38:31.343Z,2.17
2017-08-04T01:40:58.763Z,2.33
2017-08-04T01:43:26.298Z,1.93
2017-08-04T01:45:53.707Z,1.70
2017-08-04T01:48:21.159Z,2.27
2017-08-04T01:50:50.739Z,1.90
2017-08-04T01:53:18.153Z,1.90
2017-08-04T01:55:45.578Z,2.00
2017-08-04T01:58:12.995Z,2.70
2017-08-04T02:00:40.419Z,2.00
2017-08-04T02:03:07.867Z,1.60
2017-08-04T02:05:35.291Z,2.87
2017-08-04T02:08:02.715Z,2.17
2017-08-04T02:10:30.259Z,2.00
2017-08-04T02:12:57.653Z,2.03
2017-08-04T02:15:25.084Z,1.90
2017-08-04T02:17:52.516Z,1.70
2017-08-04T02:20:19.935Z,2.00
2017-08-04T02:22:47.363Z,2.00
2017-08-04T02:25:14.860Z,2.33
2017-08-04T02:27:42.280Z,2.30
2017-08-04T02:30:10.496Z,2.50
2017-08-04T02:32:37.928Z,2.40
2017-08-04T02:35:05.355Z,2.00
2017-08-04T02:37:32.770Z,1.90
2017-08-04T02:40:00.224Z,1.90
2017-08-04T02:42:27.663Z,2.30
2017-08-04T02:44:55.080Z,2.20
2017-08-04T02:47:22.516Z,2.57
2017-08-04T02:49:49.932Z,2.80
2017-08-04T02:52:17.396Z,3.03
2017-08-04T02:54:44.815Z,2.80
2017-08-04T02:57:12.245Z,2.00
2017-08-04T02:59:39.672Z,3.00
2017-08-04T03:02:07.099Z,2.27
2017-08-04T03:04:34.514Z,2.33
2017-08-04T03:07:01.941Z,2.17
2017-08-04T03:09:29.355Z,1.90
2017-08-04T03:11:56.784Z,2.40
2017-08-04T03:14:24.315Z,1.70
2017-08-04T03:16:51.756Z,2.30
2017-08-04T03:19:19.170Z,1.90
2017-08-04T03:21:47.367Z,2.20
2017-08-04T03:24:14.795Z,2.47
2017-08-04T03:26:42.204Z,2.40
2017-08-04T03:29:09.639Z,2.33
2017-08-04T03:31:37.057Z,2.50
2017-08-04T03:34:04.482Z,3.43
2017-08-04T03:36:31.904Z,2.10
2017-08-04T03:38:59.327Z,2.47
2017-08-04T03:41:26.752Z,2.00
2017-08-04T03:43:54.199Z,2.10
2017-08-04T03:46:21.607Z,2.10
2017-08-04T03:48:49.036Z,2.10
2017-08-04T03:51:16.464Z,2.73
2017-08-04T03:53:43.883Z,2.40
2017-08-04T03:56:11.305Z,2.17
2017-08-04T04:01:29.208Z,2.13
2017-08-04T04:03:56.640Z,2.13
2017-08-04T04:06:24.071Z,2.70
2017-08-04T04:08:51.507Z,2.50
2017-08-04T04:11:18.920Z,2.37
2017-08-04T04:13:46.359Z,2.40
2017-08-04T04:16:13.780Z,2.30
2017-08-04T04:18:41.204Z,2.30
2017-08-04T04:21:08.620Z,2.30
2017-08-04T04:23:36.816Z,2.60
2017-08-04T04:26:04.248Z,2.37
2017-08-04T04:28:31.689Z,2.40
2017-08-04T04:30:59.107Z,2.40
2017-08-04T04:33:26.540Z,2.20
2017-08-04T04:35:53.955Z,2.50
2017-08-04T04:38:21.380Z,2.20
2017-08-04T04:40:48.817Z,2.40
2017-08-04T04:43:16.223Z,2.30
2017-08-04T04:45:43.652Z,2.57
2017-08-04T04:48:11.085Z,3.40
2017-08-04T04:50:38.504Z,2.43
2017-08-04T04:53:05.925Z,3.03
2017-08-04T04:55:33.412Z,3.10
2017-08-04T04:58:00.833Z,3.10
2017-08-04T05:00:28.265Z,2.77
2017-08-04T05:02:55.684Z,2.50
2017-08-04T05:05:23.880Z,2.83
2017-08-04T05:07:51.308Z,3.20
2017-08-04T05:10:18.737Z,2.63
2017-08-04T05:12:46.157Z,2.70
2017-08-04T05:15:13.597Z,2.73
2017-08-04T05:17:41.036Z,2.70
2017-08-04T05:20:09.240Z,2.67
2017-08-04T05:22:36.705Z,3.00
2017-08-04T05:48:44.127Z,3.07
2017-08-04T05:51:11.538Z,3.20
2017-08-04T05:53:39.144Z,3.27
2017-08-04T05:56:06.563Z,4.17
2017-08-04T05:58:34.771Z,3.23
2017-08-04T06:01:02.183Z,2.70
2017-08-04T06:03:29.612Z,3.10
2017-08-04T06:05:57.050Z,2.70
2017-08-04T06:08:24.477Z,2.40
2017-08-04T06:10:51.913Z,2.73
2017-08-04T06:13:20.104Z,2.90
2017-08-04T06:15:47.535Z,2.37
2017-08-04T06:18:14.955Z,2.40
2017-08-04T06:20:42.417Z,2.00
2017-08-04T06:23:09.838Z,2.40
2017-08-04T06:25:37.272Z,2.33
2017-08-04T06:28:05.449Z,2.50
2017-08-04T06:30:32.880Z,2.87
2017-08-04T06:33:00.303Z,3.67
2017-08-04T06:35:27.762Z,2.93
2017-08-04T06:37:55.175Z,2.47
2017-08-04T06:40:23.403Z,2.30
2017-08-04T06:42:50.823Z,2.33
2017-08-04T06:45:18.245Z,2.70
2017-08-04T06:47:45.683Z,2.27
2017-08-04T06:50:24.923Z,2.33
2017-08-04T06:53:04.197Z,2.33
2017-08-04T06:55:37.531Z,2.47
2017-08-04T06:58:04.966Z,2.10
2017-08-04T07:00:32.389Z,2.20
2017-08-04T07:02:59.810Z,2.13
2017-08-04T07:05:27.256Z,2.97
2017-08-04T07:07:54.664Z,2.50
2017-08-04T07:10:22.093Z,2.07
2017-08-04T07:12:49.530Z,2.83
2017-08-04T07:15:16.960Z,2.40
2017-08-04T07:17:44.615Z,2.90
2017-08-04T07:20:12.180Z,2.60
2017-08-04T07:22:39.612Z,2.57
2017-08-04T07:25:07.036Z,2.30
2017-08-04T07:27:34.477Z,2.47
2017-08-04T07:30:01.891Z,2.63
2017-08-04T07:32:29.324Z,3.40
2017-08-04T07:34:57.550Z,2.20
2017-08-04T07:37:24.990Z,2.30
2017-08-04T07:39:52.612Z,2.03
2017-08-04T07:42:20.041Z,2.37
2017-08-04T07:44:47.469Z,2.80
2017-08-04T07:47:14.887Z,2.90
2017-08-04T07:49:42.336Z,2.33
2017-08-04T07:52:09.923Z,2.90
2017-08-04T07:54:37.351Z,2.27
2017-08-04T07:57:05.316Z,2.30
2017-08-04T07:59:32.732Z,2.50
2017-08-04T08:02:00.169Z,2.90
2017-08-04T08:04:27.580Z,2.20
2017-08-04T08:06:55.009Z,2.37
2017-08-04T08:09:22.446Z,2.30
2017-08-04T08:11:49.864Z,2.50
2017-08-04T08:14:17.298Z,2.50
2017-08-04T08:16:45.532Z,2.20
2017-08-04T08:19:13.001Z,2.43
2017-08-04T08:21:40.417Z,2.50
2017-08-04T08:24:07.832Z,1.93
2017-08-04T08:26:35.256Z,2.47
2017-08-04T08:29:02.708Z,2.60
2017-08-04T08:31:30.161Z,2.70
2017-08-04T08:33:57.602Z,2.00
2017-08-04T08:36:25.036Z,2.73
2017-08-04T08:38:52.461Z,2.30
2017-08-04T08:41:20.662Z,2.87
2017-08-04T08:43:48.067Z,2.97
2017-08-04T08:46:15.507Z,3.03
2017-08-04T08:48:42.915Z,3.10
2017-08-04T08:51:10.352Z,3.40
2017-08-04T08:53:37.780Z,2.30
2017-08-04T08:56:05.204Z,2.47
2017-08-04T08:58:32.644Z,2.70
2017-08-04T09:01:00.076Z,1.90
2017-08-04T09:03:27.495Z,2.30
2017-08-04T09:05:54.941Z,2.53
2017-08-04T09:08:22.355Z,2.17
2017-08-04T09:10:49.793Z,2.60
2017-08-04T09:13:17.217Z,2.43
2017-08-04T09:15:44.644Z,2.50
2017-08-04T09:18:12.069Z,3.03
2017-08-04T09:20:40.264Z,2.50
2017-08-04T09:23:07.697Z,2.50
2017-08-04T09:25:35.116Z,3.00
2017-08-04T09:28:02.568Z,3.73
2017-08-04T09:30:30.070Z,2.43
2017-08-04T09:32:57.500Z,2.13
2017-08-04T09:35:24.937Z,2.77
2017-08-04T09:37:52.367Z,2.10
2017-08-04T09:40:19.820Z,2.20
2017-08-04T09:42:47.252Z,3.80
2017-08-04T09:45:15.435Z,2.33
2017-08-04T09:47:42.868Z,2.47
2017-08-04T09:50:10.294Z,2.63
2017-08-04T09:52:37.735Z,3.40
2017-08-04T09:55:05.143Z,2.87
2017-08-04T09:57:33.345Z,2.80
2017-08-04T10:00:00.765Z,2.50
2017-08-04T10:02:28.221Z,3.47
2017-08-04T10:04:55.653Z,3.53
2017-08-04T10:07:23.091Z,2.30
2017-08-04T10:09:50.520Z,2.83
2017-08-04T10:12:17.976Z,2.70
2017-08-04T10:14:45.437Z,2.33
2017-08-04T10:17:12.844Z,2.67
2017-08-04T10:19:40.272Z,2.70
2017-08-04T10:22:07.699Z,3.10
2017-08-04T10:24:35.125Z,2.87
2017-08-04T10:27:02.552Z,2.47
2017-08-04T10:29:29.993Z,3.30
2017-08-04T10:31:57.418Z,2.40
2017-08-04T10:34:24.864Z,2.27
2017-08-04T10:36:52.279Z,2.60
2017-08-04T10:39:19.712Z,3.47
2017-08-04T10:41:47.225Z,2.20
2017-08-04T10:44:14.650Z,2.57
2017-08-04T10:46:42.069Z,2.77
2017-08-04T10:49:09.496Z,2.73
2017-08-04T10:51:37.680Z,2.80
2017-08-04T10:54:05.173Z,2.47
2017-08-04T10:56:32.592Z,2.83
2017-08-04T10:59:00.071Z,3.07
2017-08-04T11:01:27.493Z,2.60
2017-08-04T11:03:54.908Z,3.13
2017-08-04T11:06:22.347Z,2.37
2017-08-04T11:08:49.784Z,2.10
2017-08-04T11:11:17.227Z,3.10
2017-08-04T11:13:44.652Z,2.53
2017-08-04T11:16:12.076Z,3.53
2017-08-04T11:18:39.500Z,2.50
2017-08-04T11:21:06.928Z,2.43
2017-08-04T11:23:34.357Z,2.83
2017-08-04T11:26:01.792Z,2.77
2017-08-04T11:28:29.223Z,2.70
2017-08-04T11:30:56.673Z,2.50
2017-08-04T11:33:24.095Z,2.50
2017-08-04T11:35:51.529Z,2.47
2017-08-04T11:38:18.974Z,3.13
2017-08-04T11:40:46.602Z,2.87
2017-08-04T11:43:14.251Z,3.67
2017-08-04T11:45:42.234Z,3.10
2017-08-04T11:48:09.680Z,3.10
2017-08-04T11:50:37.128Z,3.70
2017-08-04T11:53:05.348Z,3.00
2017-08-04T11:55:32.785Z,4.10
2017-08-04T11:58:00.213Z,2.90
2017-08-04T12:00:27.645Z,2.67
2017-08-04T12:02:55.068Z,2.50
2017-08-04T12:05:22.488Z,2.80
2017-08-04T12:07:49.916Z,2.50
2017-08-04T12:10:17.334Z,2.13
2017-08-04T12:12:44.783Z,2.43
2017-08-04T12:15:12.204Z,2.40
2017-08-04T12:17:39.825Z,2.30
2017-08-04T12:20:07.267Z,2.70
2017-08-04T12:22:34.712Z,3.40
2017-08-04T12:25:02.128Z,2.63
2017-08-04T12:27:30.319Z,2.77
2017-08-04T12:29:57.739Z,2.33
2017-08-04T12:32:25.188Z,2.87
2017-08-04T12:34:52.628Z,2.80
2017-08-04T12:37:20.083Z,2.60
2017-08-04T12:39:47.499Z,2.80
2017-08-04T12:42:14.970Z,2.53
2017-08-04T12:44:42.446Z,2.30
2017-08-04T12:47:09.854Z,3.60
2017-08-04T12:49:37.305Z,2.27
2017-08-04T12:52:05.517Z,2.17
2017-08-04T12:54:32.941Z,2.43
2017-08-04T12:57:00.352Z,2.07
2017-08-04T12:59:27.783Z,2.40
2017-08-04T13:01:55.345Z,2.67
2017-08-04T13:04:22.773Z,2.90
2017-08-04T13:06:50.193Z,2.70
2017-08-04T13:09:17.635Z,2.47
2017-08-04T13:11:45.075Z,2.65
2017-08-04T13:14:12.528Z,2.50
2017-08-04T13:16:40.148Z,2.43
2017-08-04T13:19:07.616Z,2.30
2017-08-04T13:21:35.064Z,2.47
2017-08-04T13:24:02.496Z,2.10
2017-08-04T13:26:30.105Z,2.57
2017-08-04T13:28:57.603Z,2.73
2017-08-04T13:31:25.018Z,2.90
2017-08-04T13:33:52.473Z,2.10
2017-08-04T13:36:19.929Z,2.83
2017-08-04T13:38:49.256Z,2.57
2017-08-04T13:41:16.767Z,3.27
2017-08-04T13:43:44.267Z,2.03
2017-08-04T13:46:12.087Z,2.83
2017-08-04T13:48:39.583Z,3.33
2017-08-04T13:51:07.029Z,2.83
2017-08-04T13:53:34.477Z,2.97
2017-08-04T13:56:01.891Z,2.10
2017-08-04T13:58:29.327Z,2.20
2017-08-04T14:00:56.759Z,2.70
2017-08-04T14:03:24.249Z,2.43
2017-08-04T14:05:51.732Z,2.80
2017-08-04T14:08:19.239Z,2.93
2017-08-04T14:10:46.672Z,2.63
2017-08-04T14:15:48.008Z,2.70
2017-08-04T14:18:15.437Z,2.43
2017-08-04T14:20:42.861Z,2.10
2017-08-04T14:23:10.280Z,2.90
2017-08-04T14:25:37.704Z,2.20
2017-08-04T14:28:05.116Z,2.50
2017-08-04T14:30:32.563Z,2.23
2017-08-04T14:32:59.977Z,3.10
2017-08-04T14:35:28.195Z,3.80
2017-08-04T14:37:55.607Z,3.03
2017-08-04T14:40:23.025Z,3.70
2017-08-04T14:42:50.458Z,2.70
2017-08-04T14:45:17.913Z,2.90
2017-08-04T14:47:45.359Z,2.80
2017-08-04T14:50:12.772Z,2.70
2017-08-04T14:52:40.232Z,2.17
2017-08-04T14:55:07.640Z,2.73
2017-08-04T14:57:35.074Z,2.23
2017-08-04T15:00:02.800Z,2.20
2017-08-04T15:02:30.465Z,2.50
2017-08-04T15:04:57.891Z,2.67
2017-08-04T15:07:25.337Z,2.70
2017-08-04T15:09:52.755Z,2.90
2017-08-04T15:12:20.194Z,2.17
2017-08-04T15:14:48.368Z,3.83
2017-08-04T15:17:15.820Z,3.20
2017-08-04T15:19:43.235Z,2.13
2017-08-04T15:22:10.716Z,3.47
2017-08-04T15:24:38.145Z,3.10
2017-08-04T15:27:05.571Z,3.30
2017-08-04T15:29:32.995Z,2.57
2017-08-04T15:32:01.181Z,3.17
2017-08-04T15:34:28.605Z,2.77
2017-08-04T15:36:56.025Z,2.50
2017-08-04T15:39:23.453Z,3.20
2017-08-04T15:41:51.631Z,2.80
2017-08-04T15:44:19.060Z,2.23
2017-08-04T15:46:46.776Z,2.53
2017-08-04T15:49:14.175Z,3.17
2017-08-04T15:51:41.932Z,2.43
2017-08-04T15:54:09.364Z,2.93
2017-08-04T15:56:36.783Z,2.40
2017-08-04T15:59:04.216Z,2.97
2017-08-04T16:01:31.644Z,2.37
2017-08-04T16:04:00.259Z,2.37
2017-08-04T16:06:27.690Z,2.63
2017-08-04T16:08:55.104Z,2.50
2017-08-04T16:11:22.528Z,2.77
2017-08-04T16:13:50.716Z,3.70
2017-08-04T16:16:18.151Z,3.10
2017-08-04T16:18:45.572Z,2.90
2017-08-04T16:21:13.004Z,3.13
2017-08-04T16:23:40.415Z,3.00
2017-08-04T16:26:08.612Z,2.80
2017-08-04T16:28:36.039Z,3.03
2017-08-04T16:31:03.549Z,2.60
2017-08-04T16:33:30.964Z,2.70
2017-08-04T16:35:58.409Z,2.50
2017-08-04T16:38:25.868Z,3.10
2017-08-04T16:40:53.281Z,3.63
2017-08-04T16:43:20.708Z,2.80
2017-08-04T16:45:48.140Z,3.10
2017-08-04T16:48:16.324Z,3.50
2017-08-04T16:50:43.783Z,3.53
2017-08-04T16:53:11.227Z,4.75
2017-08-04T16:55:38.750Z,6.93
2017-08-04T16:58:06.201Z,4.73
2017-08-04T17:00:33.669Z,6.40
2017-08-04T17:03:01.105Z,3.63
2017-08-04T17:05:28.515Z,3.57
2017-08-04T17:07:55.956Z,4.03
2017-08-04T17:10:23.376Z,4.43
2017-08-04T17:12:50.803Z,4.00
2017-08-04T17:15:18.242Z,3.73
2017-08-04T17:17:45.667Z,3.00
2017-08-04T17:20:13.092Z,3.60
2017-08-04T17:22:40.529Z,2.40
2017-08-04T17:25:07.956Z,3.40
2017-08-04T17:27:35.375Z,3.70
2017-08-04T17:30:02.809Z,3.30
2017-08-04T17:32:30.262Z,6.13
2017-08-04T17:34:57.698Z,3.90
2017-08-04T17:37:25.120Z,3.13
2017-08-04T17:39:52.543Z,3.70
2017-08-04T17:42:19.975Z,3.80
2017-08-04T17:44:47.543Z,3.47
2017-08-04T17:47:14.968Z,3.80
2017-08-04T17:49:42.399Z,3.47
2017-08-04T17:52:09.812Z,3.33
2017-08-04T17:54:37.272Z,3.77
2017-08-04T17:57:04.705Z,2.70
2017-08-04T17:59:32.147Z,3.70
2017-08-04T18:01:59.680Z,3.80
2017-08-04T18:04:27.215Z,3.90
2017-08-04T18:06:55.416Z,4.17
2017-08-04T18:09:23.622Z,3.40
2017-08-04T18:11:51.040Z,5.53
2017-08-04T18:14:18.475Z,4.23
2017-08-04T18:16:46.433Z,3.13
2017-08-04T18:19:13.856Z,3.73
2017-08-04T18:21:41.284Z,3.93
2017-08-04T18:24:08.832Z,2.73
2017-08-04T18:26:37.020Z,4.10
2017-08-04T18:29:04.537Z,4.23
2017-08-04T18:31:31.970Z,3.20
2017-08-04T18:33:59.446Z,3.80
2017-08-04T18:36:26.902Z,3.30
2017-08-04T18:38:54.321Z,3.07
2017-08-04T18:41:21.752Z,3.27
2017-08-04T18:43:49.178Z,4.17
2017-08-04T18:46:16.611Z,3.70
2017-08-04T18:48:44.049Z,3.10
2017-08-04T18:51:11.473Z,5.10
2017-08-04T18:53:39.662Z,2.97
2017-08-04T18:56:07.103Z,3.93
2017-08-04T18:58:34.537Z,3.57
2017-08-04T19:01:01.972Z,3.83
2017-08-04T19:03:29.396Z,2.30
2017-08-04T19:05:56.827Z,3.70
2017-08-04T19:08:25.016Z,3.30
2017-08-04T19:10:52.498Z,3.77
2017-08-04T19:13:19.911Z,3.83
2017-08-04T19:15:47.358Z,5.83
2017-08-04T19:18:14.793Z,4.33
2017-08-04T19:20:42.288Z,4.07
2017-08-04T19:23:09.724Z,3.97
2017-08-04T19:25:37.145Z,3.00
2017-08-04T19:28:04.619Z,4.33
2017-08-04T19:30:32.045Z,4.20
2017-08-04T19:32:59.471Z,3.83
2017-08-04T19:35:26.909Z,5.17
2017-08-04T19:37:55.108Z,4.60
2017-08-04T19:40:22.546Z,4.03
2017-08-04T19:42:49.963Z,6.00
2017-08-04T19:45:17.396Z,6.03
2017-08-04T19:47:44.825Z,6.90
2017-08-04T19:50:12.253Z,6.03
2017-08-04T19:52:39.765Z,5.97
2017-08-04T19:55:07.184Z,4.77
2017-08-04T19:57:35.384Z,5.20
2017-08-04T20:00:02.844Z,3.77
2017-08-04T20:02:30.288Z,6.50
2017-08-04T20:04:57.730Z,5.30
2017-08-04T20:07:25.163Z,3.37
2017-08-04T20:09:52.588Z,4.03
2017-08-04T20:12:20.053Z,4.70
2017-08-04T20:14:47.473Z,4.23
2017-08-04T20:17:14.900Z,4.37
2017-08-04T20:19:43.121Z,3.93
2017-08-04T20:22:10.556Z,4.33
2017-08-04T20:24:37.983Z,3.80
2017-08-04T20:27:05.413Z,3.80
2017-08-04T20:29:32.864Z,3.60
2017-08-04T20:32:00.296Z,4.90
2017-08-04T20:34:27.748Z,6.60
2017-08-04T20:36:55.167Z,5.10
2017-08-04T20:39:22.616Z,5.77
2017-08-04T20:41:50.821Z,5.60
2017-08-04T20:44:18.264Z,6.13
2017-08-04T20:46:45.696Z,4.70
2017-08-04T20:49:13.129Z,3.90
2017-08-04T20:51:40.561Z,4.90
2017-08-04T20:54:08.019Z,4.00
2017-08-04T20:56:35.441Z,4.70
2017-08-04T20:59:02.896Z,4.47
2017-08-04T21:01:30.345Z,3.60
2017-08-04T21:03:58.560Z,9.13
2017-08-04T21:06:25.998Z,5.00
2017-08-04T21:08:53.416Z,4.47
2017-08-04T21:11:20.853Z,4.07
2017-08-04T21:13:48.274Z,4.00
2017-08-04T21:16:15.706Z,3.73
2017-08-04T21:18:43.124Z,4.47
2017-08-04T21:21:10.572Z,5.27
2017-08-04T21:23:37.993Z,4.23
2017-08-04T21:26:05.420Z,4.50
2017-08-04T21:28:32.872Z,4.43
2017-08-04T21:31:00.896Z,3.97
2017-08-04T21:33:28.335Z,6.17
2017-08-04T21:35:55.765Z,6.10
2017-08-04T21:38:23.184Z,4.50
2017-08-04T21:40:50.626Z,4.27
2017-08-04T21:43:18.036Z,3.90
2017-08-04T21:45:45.483Z,3.50
2017-08-04T21:48:12.908Z,3.63
2017-08-04T21:50:40.328Z,3.67
2017-08-04T21:53:08.913Z,4.10
2017-08-04T21:55:36.333Z,3.57
2017-08-04T21:58:03.763Z,3.93
2017-08-04T22:00:31.188Z,3.67
2017-08-04T22:02:58.615Z,4.70
2017-08-04T22:05:26.048Z,3.70
2017-08-04T22:07:54.248Z,3.70
2017-08-04T22:10:21.675Z,3.93
2017-08-04T22:12:49.110Z,3.30
2017-08-04T22:15:16.528Z,3.70
2017-08-04T22:17:44.006Z,3.67
2017-08-04T22:20:11.418Z,4.30
2017-08-04T22:22:38.847Z,4.93
2017-08-04T22:25:07.061Z,3.80
2017-08-04T22:27:34.491Z,3.70
2017-08-04T22:30:01.927Z,3.47
2017-08-04T22:32:29.339Z,7.40
2017-08-04T22:34:56.768Z,3.67
2017-08-04T22:37:24.198Z,4.40
2017-08-04T22:39:52.383Z,5.53
2017-08-04T22:42:19.815Z,8.33
2017-08-04T22:44:47.257Z,5.93
2017-08-04T22:47:14.683Z,6.63
2017-08-04T22:49:42.128Z,6.67
2017-08-04T22:52:09.557Z,4.90
2017-08-04T22:54:37.768Z,4.40
2017-08-04T22:57:05.204Z,5.20
2017-08-04T22:59:32.629Z,4.63
2017-08-04T23:02:00.061Z,3.40
2017-08-04T23:04:27.497Z,4.43
2017-08-04T23:06:54.941Z,3.70
2017-08-04T23:09:22.373Z,4.27
2017-08-04T23:11:49.816Z,3.90
2017-08-04T23:14:18.006Z,4.03
2017-08-04T23:16:45.437Z,5.10
2017-08-04T23:19:12.868Z,5.20
2017-08-04T23:21:40.293Z,4.20
2017-08-04T23:24:07.716Z,5.33
2017-08-04T23:26:35.917Z,5.47
2017-08-04T23:29:03.349Z,5.43
2017-08-04T23:31:30.784Z,7.93
2017-08-04T23:33:58.206Z,6.03
2017-08-04T23:36:25.654Z,5.50
2017-08-04T23:38:53.080Z,6.23
2017-08-04T23:41:20.674Z,6.40
2017-08-04T23:43:48.096Z,5.13
2017-08-04T23:46:15.521Z,4.80
2017-08-04T23:48:42.989Z,4.53
2017-08-04T23:51:10.416Z,4.83
2017-08-04T23:53:37.861Z,4.53
2017-08-04T23:56:05.303Z,3.90
2017-08-04T23:58:32.731Z,4.43
